ENMS

Details ICAO ENMS (MJF)
Name KJAERSTAD
Region Norway
Timezone Europe/Oslo (UTC+1.0)
Plans Departing 5
Arriving 6
Stats Elevation 237 ft / 72 m (AMSL)
Location 65.783997° 13.214914°
Runways 1
Magnetic Variation 4.878° E
Sunrise 2017-12-17 09:33:19 UTC / 2017-12-17 10:33:19 Local
Sunset 2017-12-17 12:35:54 UTC / 2017-12-17 13:35:54 Local
Advertisement - Login to hide

Runways

ID Width Length Bearing (true) Bearing (mag) Surface Threshold Offset Overrun Length
16 98 ft / 30 m 2,876 ft / 877 m 160.56° 155.68° Asphalt 197 ft / 60 m 0 ft / 0 m
34 98 ft / 30 m 2,876 ft / 877 m 340.57° 335.69° Asphalt 197 ft / 60 m 0 ft / 0 m

Approach Navaids

Runway Type Ident Frequency Range Bearing (true) Bearing (mag) Slope Elevation
34 Localiser MS 110.70 MHz 18 nm / 33 km 3.98° 359.10° - 255 ft / 78 m (AMSL)

Map

Weather


0- 5 10 15 20 25 30 35+ Temperature / ° C

Clouds and Precipitation
Forecast for 2017-12-17 18:00 UTC. Updated 35 minutes ago

Ground ~20,000 ft ~40,000 ft Winds

METAR

ENMS 171320Z VRB01KT 1500 SHSN VV009 M00/M01 Q1002 RMK WIND 412FT VRB01KT

TAF

Not found

Frequencies

Tower 123.40 MHz MOSJOEN INFO
Warning: Do not use this data for real-world aviation or navigation. No guarantee of current accuracy is given.